sensor_id;sensor_type;location;lat;lon;timestamp;P1;durP1;ratioP1;P2;durP2;ratioP2
52102;SDS011;38101;53.126;6.878;2024-01-15T15:16:02;6.18;;;1.92;;
52102;SDS011;38101;53.126;6.878;2024-01-15T15:18:28;4.45;;;1.70;;
52102;SDS011;38101;53.126;6.878;2024-01-15T15:20:55;6.60;;;1.70;;
52102;SDS011;38101;53.126;6.878;2024-01-15T15:23:21;7.10;;;1.75;;
52102;SDS011;38101;53.126;6.878;2024-01-15T15:25:47;8.65;;;2.08;;
52102;SDS011;38101;53.126;6.878;2024-01-15T15:28:12;6.80;;;2.05;;
52102;SDS011;38101;53.126;6.878;2024-01-15T15:30:40;8.15;;;2.10;;
52102;SDS011;38101;53.126;6.878;2024-01-15T15:33:05;6.05;;;1.98;;
52102;SDS011;38101;53.126;6.878;2024-01-15T15:35:31;6.75;;;2.42;;
52102;SDS011;38101;53.126;6.878;2024-01-15T15:37:57;6.50;;;2.55;;
52102;SDS011;38101;53.126;6.878;2024-01-15T15:40:22;7.60;;;3.10;;
52102;SDS011;38101;53.126;6.878;2024-01-15T15:42:49;8.38;;;2.35;;
52102;SDS011;38101;53.126;6.878;2024-01-15T15:45:15;6.57;;;2.05;;
52102;SDS011;38101;53.126;6.878;2024-01-15T15:47:41;5.50;;;2.22;;
52102;SDS011;38101;53.126;6.878;2024-01-15T15:50:07;6.47;;;1.95;;
52102;SDS011;38101;53.126;6.878;2024-01-15T15:52:33;9.48;;;2.60;;
52102;SDS011;38101;53.126;6.878;2024-01-15T15:54:59;9.63;;;2.30;;
52102;SDS011;38101;53.126;6.878;2024-01-15T15:57:25;6.50;;;2.05;;
52102;SDS011;38101;53.126;6.878;2024-01-15T15:59:52;4.97;;;2.10;;
52102;SDS011;38101;53.126;6.878;2024-01-15T16:02:21;5.95;;;1.83;;
52102;SDS011;38101;53.126;6.878;2024-01-15T16:04:47;4.95;;;1.92;;
52102;SDS011;38101;53.126;6.878;2024-01-15T16:07:12;6.78;;;1.70;;
52102;SDS011;38101;53.126;6.878;2024-01-15T16:09:39;6.15;;;1.85;;
52102;SDS011;38101;53.126;6.878;2024-01-15T16:12:06;3.45;;;1.23;;
52102;SDS011;38101;53.126;6.878;2024-01-15T16:14:33;2.80;;;1.05;;
52102;SDS011;38101;53.126;6.878;2024-01-15T16:16:59;3.50;;;1.55;;
52102;SDS011;38101;53.126;6.878;2024-01-15T16:19:25;3.55;;;1.83;;
52102;SDS011;38101;53.126;6.878;2024-01-15T16:21:51;3.40;;;1.33;;
52102;SDS011;38101;53.126;6.878;2024-01-15T16:24:17;4.07;;;1.40;;
52102;SDS011;38101;53.126;6.878;2024-01-15T16:26:44;3.38;;;1.50;;
52102;SDS011;38101;53.126;6.878;2024-01-15T16:29:10;5.20;;;1.65;;
52102;SDS011;38101;53.126;6.878;2024-01-15T16:31:37;2.75;;;0.93;;
52102;SDS011;38101;53.126;6.878;2024-01-15T16:34:03;3.75;;;1.08;;
52102;SDS011;38101;53.126;6.878;2024-01-15T16:36:30;2.83;;;1.00;;
52102;SDS011;38101;53.126;6.878;2024-01-15T16:38:56;4.20;;;1.25;;
52102;SDS011;38101;53.126;6.878;2024-01-15T16:41:22;2.30;;;1.13;;
52102;SDS011;38101;53.126;6.878;2024-01-15T16:43:47;10.15;;;3.70;;
52102;SDS011;38101;53.126;6.878;2024-01-15T16:46:13;2.30;;;1.27;;
52102;SDS011;38101;53.126;6.878;2024-01-15T16:48:39;2.72;;;1.00;;
52102;SDS011;38101;53.126;6.878;2024-01-15T16:51:05;2.67;;;0.47;;
52102;SDS011;38101;53.126;6.878;2024-01-15T16:53:31;4.32;;;0.98;;
52102;SDS011;38101;53.126;6.878;2024-01-15T16:55:56;2.17;;;0.70;;
52102;SDS011;38101;53.126;6.878;2024-01-15T16:58:22;2.13;;;0.70;;
52102;SDS011;38101;53.126;6.878;2024-01-15T17:00:49;3.25;;;1.08;;
52102;SDS011;38101;53.126;6.878;2024-01-15T17:03:14;1.88;;;0.95;;
52102;SDS011;38101;53.126;6.878;2024-01-15T17:05:40;3.13;;;1.02;;
52102;SDS011;38101;53.126;6.878;2024-01-15T17:08:06;3.03;;;1.17;;
52102;SDS011;38101;53.126;6.878;2024-01-15T17:10:32;1.20;;;1.05;;
52102;SDS011;38101;53.126;6.878;2024-01-15T17:12:58;1.60;;;0.75;;
52102;SDS011;38101;53.126;6.878;2024-01-15T17:15:29;1.52;;;0.80;;
52102;SDS011;38101;53.126;6.878;2024-01-15T17:17:55;3.15;;;1.17;;
52102;SDS011;38101;53.126;6.878;2024-01-15T17:20:21;2.20;;;0.90;;
52102;SDS011;38101;53.126;6.878;2024-01-15T17:22:47;4.82;;;1.40;;
52102;SDS011;38101;53.126;6.878;2024-01-15T17:25:13;2.10;;;0.77;;
52102;SDS011;38101;53.126;6.878;2024-01-15T17:27:38;4.07;;;1.20;;
52102;SDS011;38101;53.126;6.878;2024-01-15T17:30:07;2.42;;;1.10;;
52102;SDS011;38101;53.126;6.878;2024-01-15T17:32:34;2.50;;;1.13;;
52102;SDS011;38101;53.126;6.878;2024-01-15T17:34:59;6.68;;;1.50;;
52102;SDS011;38101;53.126;6.878;2024-01-15T17:37:25;2.30;;;1.38;;
52102;SDS011;38101;53.126;6.878;2024-01-15T17:39:51;2.55;;;1.17;;
52102;SDS011;38101;53.126;6.878;2024-01-15T17:42:18;3.38;;;1.60;;
52102;SDS011;38101;53.126;6.878;2024-01-15T17:44:44;3.33;;;1.52;;
52102;SDS011;38101;53.126;6.878;2024-01-15T17:47:10;5.13;;;1.40;;
52102;SDS011;38101;53.126;6.878;2024-01-15T17:49:35;5.55;;;1.45;;
52102;SDS011;38101;53.126;6.878;2024-01-15T17:52:02;4.25;;;1.67;;
52102;SDS011;38101;53.126;6.878;2024-01-15T17:54:28;2.40;;;1.38;;
52102;SDS011;38101;53.126;6.878;2024-01-15T17:56:56;3.42;;;1.30;;
52102;SDS011;38101;53.126;6.878;2024-01-15T17:59:22;3.95;;;1.20;;
52102;SDS011;38101;53.126;6.878;2024-01-15T18:01:47;2.40;;;1.30;;
52102;SDS011;38101;53.126;6.878;2024-01-15T18:04:13;4.93;;;1.30;;
52102;SDS011;38101;53.126;6.878;2024-01-15T18:06:44;3.28;;;1.27;;
52102;SDS011;38101;53.126;6.878;2024-01-15T18:09:12;3.85;;;1.30;;
52102;SDS011;38101;53.126;6.878;2024-01-15T18:11:39;1.98;;;1.20;;
52102;SDS011;38101;53.126;6.878;2024-01-15T18:14:05;4.97;;;1.38;;
52102;SDS011;38101;53.126;6.878;2024-01-15T18:16:30;3.92;;;1.23;;
52102;SDS011;38101;53.126;6.878;2024-01-15T18:18:56;4.90;;;1.70;;
52102;SDS011;38101;53.126;6.878;2024-01-15T18:21:22;5.25;;;1.83;;
52102;SDS011;38101;53.126;6.878;2024-01-15T18:23:48;5.15;;;1.88;;
52102;SDS011;38101;53.126;6.878;2024-01-15T18:26:14;5.82;;;1.90;;
52102;SDS011;38101;53.126;6.878;2024-01-15T18:28:41;4.28;;;1.58;;
52102;SDS011;38101;53.126;6.878;2024-01-15T18:31:07;4.00;;;1.70;;
52102;SDS011;38101;53.126;6.878;2024-01-15T18:33:34;4.07;;;1.50;;
52102;SDS011;38101;53.126;6.878;2024-01-15T18:36:04;6.45;;;1.70;;
52102;SDS011;38101;53.126;6.878;2024-01-15T18:38:34;4.80;;;1.50;;
52102;SDS011;38101;53.126;6.878;2024-01-15T18:41:00;4.45;;;1.40;;
52102;SDS011;38101;53.126;6.878;2024-01-15T18:43:29;4.90;;;1.42;;
52102;SDS011;38101;53.126;6.878;2024-01-15T18:46:04;5.95;;;2.17;;
52102;SDS011;38101;53.126;6.878;2024-01-15T18:48:32;4.53;;;1.40;;
52102;SDS011;38101;53.126;6.878;2024-01-15T18:50:58;4.68;;;1.50;;
52102;SDS011;38101;53.126;6.878;2024-01-15T18:53:25;4.68;;;1.77;;
52102;SDS011;38101;53.126;6.878;2024-01-15T18:55:50;2.88;;;1.48;;
52102;SDS011;38101;53.126;6.878;2024-01-15T18:58:16;6.28;;;1.80;;
52102;SDS011;38101;53.126;6.878;2024-01-15T19:00:42;3.08;;;1.27;;
52102;SDS011;38101;53.126;6.878;2024-01-15T19:03:07;4.65;;;1.45;;
52102;SDS011;38101;53.126;6.878;2024-01-15T19:05:33;3.78;;;1.45;;
52102;SDS011;38101;53.126;6.878;2024-01-15T19:07:59;5.38;;;1.80;;
52102;SDS011;38101;53.126;6.878;2024-01-15T19:10:25;3.92;;;1.77;;
52102;SDS011;38101;53.126;6.878;2024-01-15T19:12:51;7.95;;;2.30;;
52102;SDS011;38101;53.126;6.878;2024-01-15T19:15:18;4.55;;;1.63;;
52102;SDS011;38101;53.126;6.878;2024-01-15T19:17:43;4.93;;;1.73;;
52102;SDS011;38101;53.126;6.878;2024-01-15T19:20:10;3.33;;;1.35;;
52102;SDS011;38101;53.126;6.878;2024-01-15T19:23:17;4.70;;;2.15;;
52102;SDS011;38101;53.126;6.878;2024-01-15T19:25:43;4.70;;;1.30;;
52102;SDS011;38101;53.126;6.878;2024-01-15T19:28:09;4.35;;;2.08;;
52102;SDS011;38101;53.126;6.878;2024-01-15T19:30:35;4.22;;;1.70;;
52102;SDS011;38101;53.126;6.878;2024-01-15T19:33:00;8.02;;;2.40;;
52102;SDS011;38101;53.126;6.878;2024-01-15T19:35:27;4.38;;;2.22;;
52102;SDS011;38101;53.126;6.878;2024-01-15T19:37:53;5.60;;;2.00;;
52102;SDS011;38101;53.126;6.878;2024-01-15T19:40:18;4.03;;;2.20;;
52102;SDS011;38101;53.126;6.878;2024-01-15T19:42:44;4.75;;;1.90;;
52102;SDS011;38101;53.126;6.878;2024-01-15T19:45:10;4.18;;;1.67;;
52102;SDS011;38101;53.126;6.878;2024-01-15T19:47:35;7.70;;;1.92;;
52102;SDS011;38101;53.126;6.878;2024-01-15T19:50:01;5.70;;;2.00;;
52102;SDS011;38101;53.126;6.878;2024-01-15T19:52:27;5.45;;;1.90;;
52102;SDS011;38101;53.126;6.878;2024-01-15T19:54:52;6.32;;;1.83;;
52102;SDS011;38101;53.126;6.878;2024-01-15T19:57:18;7.10;;;2.00;;
52102;SDS011;38101;53.126;6.878;2024-01-15T19:59:44;5.85;;;2.20;;
52102;SDS011;38101;53.126;6.878;2024-01-15T20:02:09;4.68;;;1.83;;
52102;SDS011;38101;53.126;6.878;2024-01-15T20:04:35;5.80;;;1.80;;
52102;SDS011;38101;53.126;6.878;2024-01-15T20:07:01;5.50;;;2.75;;
52102;SDS011;38101;53.126;6.878;2024-01-15T20:09:27;6.18;;;2.40;;
52102;SDS011;38101;53.126;6.878;2024-01-15T20:11:53;6.50;;;2.50;;
52102;SDS011;38101;53.126;6.878;2024-01-15T20:14:19;9.50;;;3.38;;
52102;SDS011;38101;53.126;6.878;2024-01-15T20:16:45;10.98;;;2.35;;
52102;SDS011;38101;53.126;6.878;2024-01-15T20:19:11;6.95;;;2.60;;
52102;SDS011;38101;53.126;6.878;2024-01-15T20:21:36;4.80;;;1.90;;
52102;SDS011;38101;53.126;6.878;2024-01-15T20:24:03;9.35;;;2.13;;
52102;SDS011;38101;53.126;6.878;2024-01-15T20:26:29;3.85;;;1.80;;
52102;SDS011;38101;53.126;6.878;2024-01-15T20:28:55;4.55;;;1.75;;
52102;SDS011;38101;53.126;6.878;2024-01-15T20:31:21;6.97;;;1.45;;
52102;SDS011;38101;53.126;6.878;2024-01-15T20:33:46;4.90;;;1.40;;
52102;SDS011;38101;53.126;6.878;2024-01-15T20:36:12;3.30;;;1.30;;
52102;SDS011;38101;53.126;6.878;2024-01-15T20:38:38;4.63;;;1.58;;
52102;SDS011;38101;53.126;6.878;2024-01-15T20:41:04;4.82;;;1.85;;
